createdAt,value
2023-04-03T00:02:11.728Z,102572.88
2023-04-03T00:04:40.963Z,102574.94
2023-04-03T00:07:11.246Z,102577.69
2023-04-03T00:09:39.904Z,102584.22
2023-04-03T00:12:08.581Z,102582.53
2023-04-03T00:14:37.150Z,102585.63
2023-04-03T00:17:05.971Z,102582.19
2023-04-03T00:19:34.713Z,102577.03
2023-04-03T00:22:03.336Z,102571.88
2023-04-03T00:24:33.242Z,102581.47
2023-04-03T00:27:01.819Z,102578.91
2023-04-03T00:29:30.406Z,102572.72
2023-04-03T00:31:58.970Z,102574.81
2023-04-03T00:34:27.544Z,102573.63
2023-04-03T00:36:56.243Z,102567.44
2023-04-03T00:39:24.923Z,102572.25
2023-04-03T00:41:54.855Z,102565.00
2023-04-03T00:44:44.759Z,102562.25
2023-04-03T00:47:16.843Z,102572.41
2023-04-03T00:49:46.574Z,102572.56
2023-04-03T00:52:18.506Z,102570.53
2023-04-03T00:54:50.787Z,102579.28
2023-04-03T00:57:21.068Z,102579.47
2023-04-03T00:59:54.339Z,102579.47
2023-04-03T01:02:22.995Z,102583.25
2023-04-03T01:04:51.879Z,102578.09
2023-04-03T01:07:23.968Z,102584.28
2023-04-03T01:09:55.682Z,102579.13
2023-04-03T01:12:28.002Z,102581.03
2023-04-03T01:14:58.368Z,102584.97
2023-04-03T01:17:31.554Z,102589.47
2023-04-03T01:20:31.557Z,102596.66
2023-04-03T01:23:08.691Z,102595.13
2023-04-03T01:25:39.646Z,102592.03
2023-04-03T01:28:12.686Z,102593.72
2023-04-03T01:30:49.703Z,102599.41
2023-04-03T01:33:19.802Z,102601.13
2023-04-03T01:35:48.389Z,102597.00
2023-04-03T01:38:17.074Z,102604.72
2023-04-03T01:40:45.849Z,102608.66
2023-04-03T01:43:14.487Z,102609.00
2023-04-03T01:45:43.104Z,102612.78
2023-04-03T01:48:11.804Z,102607.63
2023-04-03T01:50:41.749Z,102603.34
2023-04-03T01:53:10.612Z,102603.84
2023-04-03T01:55:39.209Z,102605.75
2023-04-03T01:58:07.842Z,102611.25
2023-04-03T02:00:37.661Z,102614.16
2023-04-03T02:03:07.928Z,102612.44
2023-04-03T02:05:36.902Z,102606.09
2023-04-03T02:08:07.211Z,102605.56
2023-04-03T02:10:36.115Z,102609.34
2023-04-03T02:13:04.952Z,102611.59
2023-04-03T02:15:33.568Z,102618.81
2023-04-03T02:18:02.151Z,102611.22
2023-04-03T02:20:36.716Z,102616.38
2023-04-03T02:23:07.502Z,102614.13
2023-04-03T02:25:38.599Z,102615.88
2023-04-03T02:28:07.816Z,102618.78
2023-04-03T02:30:36.690Z,102620.16
2023-04-03T02:33:05.632Z,102611.72
2023-04-03T02:35:34.287Z,102616.88
2023-04-03T02:38:02.922Z,102619.44
2023-04-03T02:40:32.870Z,102616.50
2023-04-03T02:43:01.466Z,102611.72
2023-04-03T02:45:30.224Z,102616.88
2023-04-03T02:47:58.852Z,102621.16
2023-04-03T02:50:27.477Z,102611.34
2023-04-03T02:52:56.245Z,102615.13
2023-04-03T02:55:24.853Z,102621.31
2023-04-03T02:57:54.791Z,102621.63
2023-04-03T03:00:23.696Z,102626.28
2023-04-03T03:02:52.476Z,102631.09
2023-04-03T03:05:21.259Z,102638.97
2023-04-03T03:07:49.920Z,102636.06
2023-04-03T03:10:18.625Z,102630.38
2023-04-03T03:12:47.387Z,102626.94
2023-04-03T03:15:18.371Z,102629.53
2023-04-03T03:17:47.243Z,102633.31
2023-04-03T03:20:16.590Z,102632.44
2023-04-03T03:22:45.284Z,102634.00
2023-04-03T03:25:13.918Z,102629.88
2023-04-03T03:27:42.853Z,102636.41
2023-04-03T03:30:12.087Z,102629.16
2023-04-03T03:32:42.075Z,102627.38
2023-04-03T03:35:11.298Z,102630.38
2023-04-03T03:37:39.895Z,102623.13
2023-04-03T03:40:09.894Z,102630.50
2023-04-03T03:42:38.433Z,102620.91
2023-04-03T03:45:08.335Z,102622.44
2023-04-03T03:47:36.935Z,102624.50
2023-04-03T03:50:08.338Z,102622.44
2023-04-03T03:52:36.996Z,102619.19
2023-04-03T03:55:06.002Z,102624.16
2023-04-03T03:57:34.708Z,102620.53
2023-04-03T04:00:03.401Z,102616.94
2023-04-03T04:02:32.107Z,102613.72
2023-04-03T04:05:00.802Z,102615.69
2023-04-03T04:07:30.777Z,102620.63
2023-04-03T04:09:59.334Z,102622.50
2023-04-03T04:12:27.940Z,102621.56
2023-04-03T04:14:56.469Z,102631.47
2023-04-03T04:17:25.117Z,102636.25
2023-04-03T04:19:53.705Z,102636.38
2023-04-03T04:22:22.311Z,102636.97
2023-04-03T04:24:52.262Z,102644.84
2023-04-03T04:27:20.859Z,102642.97
2023-04-03T04:29:49.414Z,102637.94
2023-04-03T04:32:18.020Z,102636.97
2023-04-03T04:34:46.576Z,102647.00
2023-04-03T04:37:15.171Z,102644.69
2023-04-03T04:39:43.733Z,102648.78
2023-04-03T04:42:15.109Z,102655.03
2023-04-03T04:44:45.845Z,102652.97
2023-04-03T04:47:14.445Z,102664.19
2023-04-03T04:49:43.092Z,102662.31
2023-04-03T04:52:11.728Z,102667.84
2023-04-03T04:54:40.452Z,102669.59
2023-04-03T04:57:09.166Z,102673.50
2023-04-03T04:59:39.228Z,102669.22
2023-04-03T05:02:07.890Z,102672.91
2023-04-03T05:04:36.543Z,102677.59
2023-04-03T05:07:05.154Z,102681.50
2023-04-03T05:09:33.761Z,102678.06
2023-04-03T05:12:03.966Z,102686.84
2023-04-03T05:14:32.541Z,102677.25
2023-04-03T05:17:02.508Z,102681.97
2023-04-03T05:19:31.096Z,102679.06
2023-04-03T05:21:59.678Z,102682.88
2023-04-03T05:24:28.302Z,102685.22
2023-04-03T05:26:56.888Z,102682.50
2023-04-03T05:29:25.449Z,102687.78
2023-04-03T05:31:54.205Z,102686.03
2023-04-03T05:34:24.223Z,102684.81
2023-04-03T05:36:52.806Z,102694.63
2023-04-03T05:39:22.144Z,102695.97
2023-04-03T05:41:50.918Z,102696.00
2023-04-03T05:44:19.485Z,102703.44
2023-04-03T05:46:48.204Z,102704.28
2023-04-03T05:49:16.770Z,102714.81
2023-04-03T05:51:46.877Z,102714.25
2023-04-03T05:54:19.866Z,102726.97
2023-04-03T05:56:48.600Z,102730.09
2023-04-03T05:59:17.724Z,102728.63
2023-04-03T06:01:46.824Z,102728.34
2023-04-03T06:04:16.193Z,102731.81
2023-04-03T06:06:52.475Z,102733.53
2023-04-03T06:09:22.633Z,102734.88
2023-04-03T06:11:51.371Z,102736.50
2023-04-03T06:14:19.963Z,102736.34
2023-04-03T06:16:49.423Z,102740.56
2023-04-03T06:19:18.100Z,102735.22
2023-04-03T06:21:46.749Z,102738.19
2023-04-03T06:24:18.957Z,102733.06
2023-04-03T06:26:47.742Z,102737.78
2023-04-03T06:29:16.664Z,102738.59
2023-04-03T06:31:45.560Z,102728.31
2023-04-03T06:34:14.803Z,102727.91
2023-04-03T06:36:44.174Z,102726.44
2023-04-03T06:39:18.952Z,102728.38
2023-04-03T06:41:47.539Z,102719.09
2023-04-03T06:44:17.128Z,102723.03
2023-04-03T06:46:47.546Z,102728.63
2023-04-03T06:49:16.476Z,102734.06
2023-04-03T06:51:45.075Z,102734.00
2023-04-03T06:54:13.717Z,102745.66
2023-04-03T06:56:43.896Z,102748.63
2023-04-03T06:59:14.031Z,102746.19
2023-04-03T07:01:43.312Z,102749.31
2023-04-03T07:04:11.880Z,102755.06
2023-04-03T07:06:40.534Z,102750.00
2023-04-03T07:09:09.112Z,102747.81
2023-04-03T07:11:38.160Z,102751.88
2023-04-03T07:14:08.855Z,102757.81
2023-04-03T07:16:40.012Z,102762.75
2023-04-03T07:19:10.016Z,102762.31
2023-04-03T07:21:38.849Z,102760.00
2023-04-03T07:24:10.025Z,102760.31
2023-04-03T07:26:42.120Z,102764.97
2023-04-03T07:29:12.062Z,102767.91
2023-04-03T07:31:42.715Z,102766.19
2023-04-03T07:34:11.319Z,102778.06
2023-04-03T07:36:39.966Z,102774.25
2023-04-03T07:39:09.253Z,102771.22
2023-04-03T07:41:38.027Z,102774.63
2023-04-03T07:44:06.764Z,102776.28
2023-04-03T07:46:36.730Z,102769.31
2023-04-03T07:49:05.508Z,102775.66
2023-04-03T07:51:34.325Z,102780.63
2023-04-03T07:54:02.951Z,102768.75
2023-04-03T07:56:31.584Z,102775.13
2023-04-03T07:59:00.157Z,102784.88
2023-04-03T08:01:28.762Z,102780.91
2023-04-03T08:03:58.914Z,102771.13
2023-04-03T08:06:42.108Z,102774.44
2023-04-03T08:09:15.402Z,102774.25
2023-04-03T08:11:44.099Z,102772.41
2023-04-03T08:14:17.385Z,102779.41
2023-04-03T08:16:47.128Z,102785.84
2023-04-03T08:19:26.299Z,102780.09
2023-04-03T08:21:56.206Z,102777.38
2023-04-03T08:24:24.927Z,102781.31
2023-04-03T08:26:53.556Z,102767.44
2023-04-03T08:29:22.989Z,102778.44
2023-04-03T08:31:51.892Z,102771.34
2023-04-03T08:34:22.548Z,102780.97
2023-04-03T08:36:51.362Z,102770.50
2023-04-03T08:39:19.978Z,102779.16
2023-04-03T08:41:49.773Z,102772.00
2023-04-03T08:44:27.788Z,102780.81
2023-04-03T08:47:17.406Z,102772.41
2023-04-03T08:49:52.327Z,102790.75
2023-04-03T08:52:25.142Z,102796.28
2023-04-03T08:54:56.953Z,102794.22
2023-04-03T08:57:31.656Z,102780.13
2023-04-03T09:00:04.023Z,102777.78
2023-04-03T09:02:36.995Z,102797.47
2023-04-03T09:05:15.191Z,102782.69
2023-04-03T09:07:49.356Z,102782.53
2023-04-03T09:10:23.850Z,102780.88
2023-04-03T09:13:01.832Z,102786.56
2023-04-03T09:15:38.284Z,102784.78
2023-04-03T09:18:15.614Z,102791.81
2023-04-03T09:20:52.208Z,102796.59
2023-04-03T09:23:26.478Z,102779.81
2023-04-03T09:26:00.028Z,102800.28
2023-04-03T09:28:33.071Z,102791.84
2023-04-03T09:31:16.205Z,102797.81
2023-04-03T09:33:45.346Z,102795.97
2023-04-03T09:36:15.614Z,102787.16
2023-04-03T09:38:44.215Z,102786.28
2023-04-03T09:41:19.069Z,102784.72
2023-04-03T09:43:56.955Z,102782.00
2023-04-03T09:46:31.398Z,102786.50
2023-04-03T09:49:08.835Z,102775.63
2023-04-03T09:51:39.505Z,102775.63
2023-04-03T09:54:27.455Z,102774.38
2023-04-03T09:56:57.677Z,102792.00
2023-04-03T09:59:26.518Z,102788.41
2023-04-03T10:02:02.796Z,102779.41
2023-04-03T10:04:41.324Z,102764.84
2023-04-03T10:07:30.374Z,102774.78
2023-04-03T10:10:00.192Z,102777.34
2023-04-03T10:12:28.757Z,102785.31
2023-04-03T10:14:59.028Z,102767.22
2023-04-03T10:17:43.624Z,102776.47
2023-04-03T10:20:26.150Z,102788.38
2023-04-03T10:23:05.146Z,102776.88
2023-04-03T10:25:42.489Z,102786.84
2023-04-03T10:28:19.872Z,102758.44
2023-04-03T10:30:57.014Z,102777.72
2023-04-03T10:33:42.251Z,102772.06
2023-04-03T10:36:20.185Z,102763.09
2023-04-03T10:38:59.698Z,102755.16
2023-04-03T10:41:41.559Z,102753.28
2023-04-03T10:44:22.759Z,102759.56
2023-04-03T10:46:55.297Z,102758.56
2023-04-03T10:49:42.505Z,102739.38
2023-04-03T10:52:22.155Z,102738.50
2023-04-03T10:55:05.079Z,102756.19
2023-04-03T10:57:33.778Z,102746.75
2023-04-03T11:00:09.613Z,102746.09
2023-04-03T11:02:43.258Z,102733.47
2023-04-03T11:05:20.945Z,102731.78
2023-04-03T11:07:53.633Z,102723.00
2023-04-03T11:10:31.640Z,102728.31
2023-04-03T11:13:10.429Z,102717.44
2023-04-03T11:15:39.483Z,102724.72
2023-04-03T11:18:13.314Z,102707.41
2023-04-03T11:20:50.738Z,102714.22
2023-04-03T11:23:28.439Z,102718.69
2023-04-03T11:26:12.060Z,102702.22
2023-04-03T11:28:41.782Z,102700.78
2023-04-03T11:31:25.075Z,102706.31
2023-04-03T11:34:06.132Z,102700.63
2023-04-03T11:36:41.710Z,102708.22
2023-04-03T11:39:20.340Z,102718.91
2023-04-03T11:41:53.436Z,102716.84
2023-04-03T11:44:37.382Z,102717.88
2023-04-03T11:47:07.404Z,102702.38
2023-04-03T11:49:57.720Z,102701.22
2023-04-03T11:53:01.398Z,102701.31
2023-04-03T11:56:02.575Z,102696.19
2023-04-03T11:58:34.896Z,102699.13
2023-04-03T12:01:14.240Z,102682.88
2023-04-03T12:04:08.099Z,102689.63
2023-04-03T12:07:15.869Z,102677.75
2023-04-03T12:10:30.814Z,102682.97
2023-04-03T12:13:05.010Z,102671.91
2023-04-03T12:15:58.174Z,102683.72
2023-04-03T12:19:04.820Z,102683.53
2023-04-03T12:22:11.105Z,102672.91
2023-04-03T12:24:41.497Z,102669.88
2023-04-03T12:27:23.628Z,102674.72
2023-04-03T12:30:02.259Z,102666.13
2023-04-03T12:33:12.357Z,102675.63
2023-04-03T12:35:50.071Z,102659.81
2023-04-03T12:39:03.428Z,102654.25
2023-04-03T12:41:40.354Z,102654.53
2023-04-03T12:44:42.680Z,102652.34
2023-04-03T12:47:25.576Z,102648.00
2023-04-03T12:49:57.987Z,102656.03
2023-04-03T12:52:35.253Z,102653.66
2023-04-03T12:55:06.067Z,102635.31
2023-04-03T12:57:34.747Z,102637.84
2023-04-03T13:00:20.607Z,102626.84
2023-04-03T13:02:49.863Z,102619.25
2023-04-03T13:05:21.621Z,102625.78
2023-04-03T13:07:54.612Z,102633.91
2023-04-03T13:10:23.584Z,102626.97
2023-04-03T13:12:53.786Z,102622.91
2023-04-03T13:15:25.783Z,102638.69
2023-04-03T13:17:55.649Z,102631.72
2023-04-03T13:20:28.576Z,102627.31
2023-04-03T13:23:01.880Z,102615.94
2023-04-03T13:25:33.474Z,102609.16
2023-04-03T13:28:13.478Z,102612.25
2023-04-03T13:30:56.080Z,102599.63
2023-04-03T13:33:27.278Z,102621.66
2023-04-03T13:36:06.173Z,102618.06
2023-04-03T13:38:37.568Z,102618.28
2023-04-03T13:41:25.041Z,102609.75
2023-04-03T13:43:57.689Z,102608.19
2023-04-03T13:46:32.154Z,102603.31
2023-04-03T13:49:18.894Z,102604.59
2023-04-03T13:51:54.179Z,102598.97
2023-04-03T13:54:36.880Z,102591.13
2023-04-03T13:57:13.803Z,102587.00
2023-04-03T13:59:42.454Z,102614.59
2023-04-03T14:02:19.066Z,102591.94
2023-04-03T14:04:51.763Z,102593.00
2023-04-03T14:07:22.437Z,102584.41
2023-04-03T14:09:51.563Z,102593.72
2023-04-03T14:12:31.496Z,102598.47
2023-04-03T14:15:02.466Z,102588.91
2023-04-03T14:17:31.217Z,102570.09
2023-04-03T14:20:02.034Z,102562.44
2023-04-03T14:22:34.569Z,102560.41
2023-04-03T14:25:04.254Z,102564.75
2023-04-03T14:27:38.513Z,102567.63
2023-04-03T14:30:10.077Z,102575.81
2023-04-03T14:32:38.673Z,102555.94
2023-04-03T14:35:07.872Z,102567.00
2023-04-03T14:37:37.915Z,102566.66
2023-04-03T14:40:08.324Z,102546.59
2023-04-03T14:42:39.213Z,102550.91
2023-04-03T14:45:11.202Z,102545.59
2023-04-03T14:47:44.520Z,102566.44
2023-04-03T14:50:18.125Z,102542.97
2023-04-03T14:52:48.430Z,102544.28
2023-04-03T14:55:19.306Z,102549.66
2023-04-03T14:57:48.286Z,102537.78
2023-04-03T15:00:19.530Z,102544.34
2023-04-03T15:02:49.754Z,102546.03
2023-04-03T15:05:20.540Z,102571.78
2023-04-03T15:07:55.366Z,102545.19
2023-04-03T15:10:26.222Z,102548.41
2023-04-03T15:12:55.313Z,102538.50
2023-04-03T15:15:25.176Z,102539.75
2023-04-03T15:17:55.876Z,102543.91
2023-04-03T15:20:27.334Z,102533.53
2023-04-03T15:22:58.230Z,102532.25
2023-04-03T15:25:27.905Z,102548.44
2023-04-03T15:27:57.234Z,102535.25
2023-04-03T15:30:25.947Z,102531.84
2023-04-03T15:32:55.172Z,102537.34
2023-04-03T15:35:23.843Z,102530.84
2023-04-03T15:37:52.829Z,102542.78
2023-04-03T15:40:22.819Z,102550.84
2023-04-03T15:42:53.150Z,102544.47
2023-04-03T15:45:23.280Z,102533.53
2023-04-03T15:47:52.108Z,102530.84
2023-04-03T15:50:23.824Z,102540.78
2023-04-03T15:52:55.314Z,102533.16
2023-04-03T15:55:26.362Z,102542.72
2023-04-03T15:57:55.573Z,102541.50
2023-04-03T16:00:25.025Z,102541.31
2023-04-03T16:02:58.347Z,102539.31
2023-04-03T16:05:27.681Z,102552.16
2023-04-03T16:07:56.336Z,102553.16
2023-04-03T16:10:27.328Z,102551.78
2023-04-03T16:12:55.962Z,102564.47
2023-04-03T16:15:25.231Z,102559.47
2023-04-03T16:17:54.571Z,102544.22
2023-04-03T16:20:23.690Z,102541.94
2023-04-03T16:22:52.579Z,102543.84
2023-04-03T16:25:21.656Z,102544.69
2023-04-03T16:27:51.709Z,102547.09
2023-04-03T16:30:20.456Z,102550.25
2023-04-03T16:32:49.470Z,102539.25
2023-04-03T16:35:18.206Z,102549.94
2023-04-03T16:37:46.918Z,102543.91
2023-04-03T16:40:15.583Z,102558.72
2023-04-03T16:42:44.376Z,102555.22
2023-04-03T16:45:14.502Z,102554.81
2023-04-03T16:47:43.401Z,102553.00
2023-04-03T16:50:12.702Z,102549.03
2023-04-03T16:52:41.359Z,102561.22
2023-04-03T16:55:10.571Z,102556.44
2023-04-03T16:57:39.192Z,102561.72
2023-04-03T17:00:09.714Z,102565.50
2023-04-03T17:02:39.747Z,102558.31
2023-04-03T17:05:09.137Z,102560.28
2023-04-03T17:07:37.753Z,102566.78
2023-04-03T17:10:07.314Z,102573.53
2023-04-03T17:12:35.966Z,102572.91
2023-04-03T17:15:04.780Z,102573.44
2023-04-03T17:17:33.947Z,102562.78
2023-04-03T17:20:04.550Z,102576.53
2023-04-03T17:22:33.541Z,102563.09
2023-04-03T17:25:02.215Z,102570.16
2023-04-03T17:27:30.816Z,102568.97
2023-04-03T17:29:59.778Z,102570.47
2023-04-03T17:32:28.388Z,102577.91
2023-04-03T17:34:56.968Z,102575.31
2023-04-03T17:37:26.973Z,102575.44
2023-04-03T17:39:55.525Z,102568.66
2023-04-03T17:42:24.132Z,102566.38
2023-04-03T17:44:52.666Z,102578.41
2023-04-03T17:47:21.233Z,102571.88
2023-04-03T17:49:51.547Z,102561.72
2023-04-03T17:52:20.163Z,102568.13
2023-04-03T17:54:50.277Z,102570.34
2023-04-03T17:57:19.062Z,102580.47
2023-04-03T17:59:47.954Z,102562.44
2023-04-03T18:02:16.695Z,102574.63
2023-04-03T18:04:45.285Z,102575.00
2023-04-03T18:07:13.983Z,102577.91
2023-04-03T18:09:42.868Z,102584.44
2023-04-03T18:12:12.888Z,102581.16
2023-04-03T18:14:42.363Z,102591.66
2023-04-03T18:17:11.055Z,102585.53
2023-04-03T18:19:39.870Z,102581.97
2023-04-03T18:22:13.528Z,102595.19
2023-04-03T18:24:43.864Z,102573.31
2023-04-03T18:27:16.128Z,102589.41
2023-04-03T18:29:47.307Z,102593.50
2023-04-03T18:32:18.769Z,102586.00
2023-04-03T18:34:47.324Z,102588.38
2023-04-03T18:37:16.515Z,102583.25
2023-04-03T18:39:45.196Z,102581.22
2023-04-03T18:42:18.067Z,102577.00
2023-04-03T18:44:49.211Z,102585.59
2023-04-03T18:47:17.914Z,102581.97
2023-04-03T18:49:46.965Z,102582.97
2023-04-03T18:52:15.765Z,102588.47
2023-04-03T18:54:44.677Z,102599.56
2023-04-03T18:57:14.613Z,102586.25
2023-04-03T18:59:43.162Z,102586.38
2023-04-03T19:02:12.849Z,102586.19
2023-04-03T19:04:42.126Z,102595.44
2023-04-03T19:07:11.944Z,102595.06
2023-04-03T19:09:41.248Z,102598.91
2023-04-03T19:12:10.099Z,102599.16
2023-04-03T19:14:40.028Z,102596.78
2023-04-03T19:17:09.079Z,102592.88
2023-04-03T19:19:37.627Z,102605.72
2023-04-03T19:22:07.744Z,102611.41
2023-04-03T19:24:36.609Z,102605.22
2023-04-03T19:27:05.397Z,102600.91
2023-04-03T19:29:33.953Z,102601.91
2023-04-03T19:32:03.907Z,102605.19
2023-04-03T19:34:32.476Z,102604.91
2023-04-03T19:37:01.083Z,102605.19
2023-04-03T19:39:31.450Z,102605.56
2023-04-03T19:42:00.163Z,102607.53
2023-04-03T19:44:28.747Z,102603.00
2023-04-03T19:46:57.405Z,102603.59
2023-04-03T19:49:27.550Z,102602.63
2023-04-03T19:51:56.571Z,102599.53
2023-04-03T19:54:25.522Z,102604.28
2023-04-03T19:56:54.132Z,102602.34
2023-04-03T19:59:22.765Z,102603.22
2023-04-03T20:01:51.477Z,102602.78
2023-04-03T20:04:20.197Z,102599.34
2023-04-03T20:06:50.845Z,102603.09
2023-04-03T20:09:21.385Z,102611.78
2023-04-03T20:11:50.947Z,102610.53
2023-04-03T20:14:20.678Z,102597.16
2023-04-03T20:16:49.763Z,102605.81
2023-04-03T20:19:19.188Z,102598.50
2023-04-03T20:21:50.229Z,102599.06
2023-04-03T20:24:18.792Z,102605.03
2023-04-03T20:26:47.809Z,102597.09
2023-04-03T20:29:16.964Z,102594.72
2023-04-03T20:31:46.838Z,102590.16
2023-04-03T20:34:16.166Z,102591.91
2023-04-03T20:36:49.122Z,102592.81
2023-04-03T20:39:24.112Z,102592.69
2023-04-03T20:41:52.896Z,102593.75
2023-04-03T20:44:21.874Z,102597.38
2023-04-03T20:46:53.347Z,102601.75
2023-04-03T20:49:22.911Z,102589.53
2023-04-03T20:51:52.288Z,102596.03
2023-04-03T20:54:23.380Z,102588.63
2023-04-03T20:56:52.782Z,102595.25
2023-04-03T20:59:22.748Z,102590.88
2023-04-03T21:01:51.512Z,102588.75
2023-04-03T21:04:24.767Z,102591.59
2023-04-03T21:07:30.796Z,102593.63
2023-04-03T21:10:37.429Z,102588.09
2023-04-03T21:13:43.284Z,102587.63
2023-04-03T21:16:11.905Z,102583.81
2023-04-03T21:19:03.535Z,102589.59
2023-04-03T21:21:32.120Z,102595.88
2023-04-03T21:24:02.275Z,102590.75
2023-04-03T21:26:31.239Z,102592.31
2023-04-03T21:29:00.002Z,102593.25
2023-04-03T21:31:49.873Z,102593.03
2023-04-03T21:34:21.058Z,102609.69
2023-04-03T21:36:51.575Z,102609.19
2023-04-03T21:39:20.371Z,102608.81
2023-04-03T21:41:49.826Z,102604.81
2023-04-03T21:44:18.527Z,102607.72
2023-04-03T21:46:49.408Z,102605.88
2023-04-03T21:49:19.507Z,102610.84
2023-04-03T21:51:48.070Z,102611.63
2023-04-03T21:54:16.989Z,102614.44
2023-04-03T21:56:47.969Z,102613.84
2023-04-03T21:59:16.904Z,102606.28
2023-04-03T22:01:45.957Z,102600.13
2023-04-03T22:04:15.658Z,102604.50
2023-04-03T22:06:45.881Z,102603.03
2023-04-03T22:09:14.513Z,102596.09
2023-04-03T22:11:46.138Z,102598.97
2023-04-03T22:14:14.805Z,102594.53
2023-04-03T22:16:46.709Z,102592.47
2023-04-03T22:19:15.418Z,102598.00
2023-04-03T22:21:45.394Z,102583.16
2023-04-03T22:24:14.973Z,102590.03
2023-04-03T22:26:44.699Z,102590.72
2023-04-03T22:29:13.896Z,102586.91
2023-04-03T22:31:42.792Z,102581.75
2023-04-03T22:34:11.724Z,102577.47
2023-04-03T22:36:43.109Z,102572.34
2023-04-03T22:39:15.248Z,102568.91
2023-04-03T22:41:45.427Z,102564.59
2023-04-03T22:44:14.294Z,102570.31
2023-04-03T22:46:42.915Z,102572.69
2023-04-03T22:49:12.095Z,102577.03
2023-04-03T22:51:40.663Z,102580.63
2023-04-03T22:54:09.270Z,102575.97
2023-04-03T22:56:39.173Z,102575.97
2023-04-03T22:59:08.029Z,102575.50
2023-04-03T23:01:39.234Z,102574.63
2023-04-03T23:04:08.234Z,102577.75
2023-04-03T23:06:36.873Z,102579.78
2023-04-03T23:09:05.647Z,102574.28
2023-04-03T23:11:34.213Z,102575.28
2023-04-03T23:14:04.157Z,102578.16
2023-04-03T23:16:32.892Z,102576.19
2023-04-03T23:19:01.862Z,102576.75
2023-04-03T23:21:30.469Z,102574.84
2023-04-03T23:23:59.158Z,102580.72
2023-04-03T23:26:27.738Z,102575.41
2023-04-03T23:28:56.385Z,102576.25
2023-04-03T23:31:26.582Z,102578.81
2023-04-03T23:33:55.095Z,102576.06
2023-04-03T23:36:23.663Z,102580.22
2023-04-03T23:38:52.333Z,102577.66
2023-04-03T23:41:21.425Z,102583.59
2023-04-03T23:43:50.381Z,102574.22
2023-04-03T23:46:19.865Z,102573.72
2023-04-03T23:48:50.198Z,102575.97
2023-04-03T23:51:18.788Z,102575.63
2023-04-03T23:53:47.333Z,102569.75
2023-04-03T23:56:15.984Z,102575.13
2023-04-03T23:58:44.551Z,102578.22
